Time;durP1;ratioP1;P1;durP2;ratioP2;P2;SDS_P1;SDS_P2;PMS_P1;PMS_P2;Temp;Humidity;BMP_temperature;BMP_pressure;BME280_temperature;BME280_humidity;BME280_pressure;Samples;Min_cycle;Max_cycle;Signal;HPM_P1;HPM_P2
2022/02/26 00:02:25;;;;;;;18.40;12.67;;;;;;;0.56;91.02;100864.56;4968880;28;20039;-76
2022/02/26 00:04:51;;;;;;;20.63;13.23;;;;;;;0.57;90.51;100864.69;4968904;28;20501;-73
2022/02/26 00:07:17;;;;;;;17.07;10.03;;;;;;;0.44;91.71;100877.13;4970641;28;20037;-75
2022/02/26 00:09:44;;;;;;;15.13;10.80;;;;;;;0.55;90.60;100871.31;4956961;28;20148;-77
2022/02/26 00:12:10;;;;;;;14.53;9.43;;;;;;;0.54;90.61;100876.25;4973216;28;20035;-77
2022/02/26 00:14:35;;;;;;;15.77;9.60;;;;;;;0.78;90.19;100869.78;4974650;28;20035;-76
2022/02/26 00:17:01;;;;;;;17.93;9.33;;;;;;;0.78;88.73;100859.59;4974629;28;20378;-78
2022/02/26 00:19:27;;;;;;;14.30;9.07;;;;;;;0.68;88.60;100855.41;4974635;28;20085;-75
2022/02/26 00:21:53;;;;;;;14.47;9.57;;;;;;;0.67;89.40;100833.31;4974264;28;20038;-76
2022/02/26 00:24:19;;;;;;;13.13;8.50;;;;;;;0.81;87.82;100882.75;4973027;28;20033;-75
2022/02/26 00:26:45;;;;;;;13.63;8.80;;;;;;;0.74;88.32;100901.66;4974079;28;20046;-74
2022/02/26 00:29:10;;;;;;;14.53;8.50;;;;;;;0.69;88.45;100899.53;4972976;28;20113;-78
2022/02/26 00:31:35;;;;;;;16.27;7.93;;;;;;;0.59;90.46;100910.56;4972973;28;20045;-77
2022/02/26 00:34:01;;;;;;;13.17;8.13;;;;;;;0.66;89.71;100906.88;4974383;28;20031;-80
2022/02/26 00:36:26;;;;;;;11.90;7.70;;;;;;;0.08;90.51;100846.22;4974018;28;20035;-76
2022/02/26 00:38:54;;;;;;;13.37;7.77;;;;;;;0.55;90.51;100913.59;4972329;28;20031;-77
2022/02/26 00:41:19;;;;;;;12.83;8.40;;;;;;;0.48;90.61;100891.88;4972764;28;20053;-76
2022/02/26 00:43:45;;;;;;;15.33;7.90;;;;;;;0.44;91.10;100912.69;4972685;28;20501;-79
2022/02/26 00:46:10;;;;;;;12.27;8.07;;;;;;;0.56;91.31;100897.59;4974292;28;20544;-82
2022/02/26 00:51:22;;;;;;;13.37;8.47;;;;;;;0.54;87.04;100855.94;4973954;28;20202;-76
2022/02/26 00:53:48;;;;;;;17.00;7.83;;;;;;;0.74;86.63;100898.25;4973649;28;20162;-78
2022/02/26 00:56:13;;;;;;;14.30;8.17;;;;;;;0.73;86.52;100887.16;4972604;28;20453;-80
2022/02/26 00:58:39;;;;;;;15.80;8.37;;;;;;;0.70;86.10;100888.56;4972372;28;20080;-78
2022/02/26 01:01:04;;;;;;;12.53;8.40;;;;;;;0.92;85.99;100887.06;4973508;28;20082;-77
2022/02/26 01:03:30;;;;;;;15.37;9.00;;;;;;;0.88;85.94;100877.38;4972260;28;20026;-81
2022/02/26 01:05:55;;;;;;;14.33;8.80;;;;;;;0.81;85.39;100854.78;4972400;28;20035;-77
2022/02/26 01:08:21;;;;;;;15.40;8.30;;;;;;;0.89;84.46;100874.09;4972211;28;20046;-74
2022/02/26 01:10:46;;;;;;;15.93;8.97;;;;;;;0.87;84.01;100887.44;4972053;28;20090;-72
2022/02/26 01:13:12;;;;;;;14.47;8.53;;;;;;;0.92;83.36;100879.44;4972137;28;20034;-76
2022/02/26 01:15:38;;;;;;;16.27;8.30;;;;;;;1.08;82.71;100888.31;4973608;28;20030;-77
2022/02/26 01:18:03;;;;;;;13.23;8.50;;;;;;;1.02;82.24;100875.97;4973183;28;20417;-78
2022/02/26 01:20:28;;;;;;;14.13;8.37;;;;;;;1.02;81.72;100878.50;4972193;28;20161;-82
2022/02/26 01:22:54;;;;;;;12.93;7.97;;;;;;;0.86;80.95;100883.09;4955626;28;20026;-77
2022/02/26 01:25:20;;;;;;;15.63;9.57;;;;;;;0.75;81.02;100893.28;4973411;28;20031;-76
2022/02/26 01:27:45;;;;;;;13.00;8.07;;;;;;;0.68;80.51;100896.06;4973047;28;20031;-79
2022/02/26 01:30:11;;;;;;;14.93;7.77;;;;;;;0.56;80.94;100880.72;4955891;28;20031;-78
2022/02/26 01:32:36;;;;;;;15.87;8.37;;;;;;;0.64;80.97;100891.50;4972941;28;20042;-77
2022/02/26 01:35:03;;;;;;;12.60;7.07;;;;;;;0.53;80.48;100860.13;4973396;28;20504;-78
2022/02/26 01:37:29;;;;;;;15.03;8.40;;;;;;;0.72;81.16;100898.09;4955711;28;20477;-79
2022/02/26 01:39:54;;;;;;;12.83;8.30;;;;;;;0.48;81.88;100857.19;4955597;28;20034;-76
2022/02/26 01:42:21;;;;;;;13.27;7.53;;;;;;;0.79;82.17;100894.44;4973221;28;20470;-74
2022/02/26 01:44:51;;;;;;;14.77;8.27;;;;;;;0.56;83.92;100897.59;4972914;28;20081;-75
2022/02/26 01:47:16;;;;;;;;;;;;;;;0.55;83.63;100890.72;4973513;28;20074;-77
2022/02/26 01:49:42;;;;;;;13.07;7.60;;;;;;;0.48;83.36;100871.53;4972606;28;19956;-77
2022/02/26 01:52:09;;;;;;;12.27;7.37;;;;;;;0.54;83.25;100876.25;4955272;28;20041;-79
2022/02/26 01:54:35;;;;;;;12.60;8.37;;;;;;;0.58;83.47;100883.38;4971352;28;20118;-77
2022/02/26 01:57:02;;;;;;;12.33;7.90;;;;;;;0.52;83.28;100865.06;4934815;29;20043;-79
2022/02/26 01:59:27;;;;;;;11.33;7.87;;;;;;;0.57;83.44;100873.97;4934626;29;20046;-84
2022/02/26 02:01:52;;;;;;;14.33;8.33;;;;;;;0.57;83.33;100858.72;4934599;29;20039;-78
2022/02/26 02:04:18;;;;;;;11.33;7.57;;;;;;;0.73;83.09;100878.66;4950519;29;20045;-77
2022/02/26 02:06:45;;;;;;;13.33;7.70;;;;;;;0.77;82.90;100865.44;4950680;29;20047;-80
2022/02/26 02:09:11;;;;;;;13.37;8.97;;;;;;;0.74;82.33;100870.28;4934607;29;20046;-78
2022/02/26 02:11:37;;;;;;;13.20;8.57;;;;;;;0.68;82.54;100844.38;4950595;29;20035;-78
2022/02/26 02:14:03;;;;;;;11.40;8.00;;;;;;;0.67;82.33;100856.16;4950407;29;20031;-80
2022/02/26 02:16:29;;;;;;;12.83;7.80;;;;;;;0.72;82.43;100854.91;4950455;29;20039;-86
2022/02/26 02:18:54;;;;;;;14.80;8.23;;;;;;;0.69;82.28;100851.25;4950344;29;20031;-78
2022/02/26 02:21:21;;;;;;;11.13;7.67;;;;;;;0.90;81.26;100883.50;4934405;29;20035;-81
2022/02/26 02:23:47;;;;;;;12.93;7.73;;;;;;;0.91;80.88;100877.66;4934508;29;20046;-80
2022/02/26 02:26:13;;;;;;;12.93;7.33;;;;;;;0.87;80.90;100877.25;4950156;28;20490;-79
2022/02/26 02:28:39;;;;;;;11.37;7.47;;;;;;;0.83;81.38;100903.19;4966882;28;20112;-78
2022/02/26 02:31:08;;;;;;;13.07;7.60;;;;;;;0.53;81.03;100855.03;4954493;28;20508;-76
2022/02/26 02:33:43;;;;;;;11.40;7.13;;;;;;;0.63;81.37;100902.44;4970707;28;20492;-73
2022/02/26 02:36:09;;;;;;;11.57;6.57;;;;;;;0.29;82.64;100881.81;4972149;28;20041;-83
2022/02/26 02:38:34;;;;;;;11.40;7.80;;;;;;;0.30;83.33;100870.91;4971017;28;20156;-80
2022/02/26 02:41:00;;;;;;;13.37;8.20;;;;;;;0.42;83.45;100901.50;4954489;28;20038;-78
2022/02/26 02:43:25;;;;;;;15.40;8.13;;;;;;;0.17;82.37;100926.47;4971764;28;20058;-84
2022/02/26 02:45:51;;;;;;;14.37;8.33;;;;;;;0.14;83.34;100924.56;4949887;29;20441;-84
2022/02/26 02:48:16;;;;;;;15.03;9.07;;;;;;;0.20;83.49;100922.56;4934150;29;20106;-87
2022/02/26 02:50:42;;;;;;;22.13;11.30;;;;;;;0.27;83.83;100921.41;4934129;29;20130;-87
2022/02/26 02:53:08;;;;;;;21.00;11.17;;;;;;;0.25;83.39;100923.84;4934499;29;20078;-84
2022/02/26 02:55:34;;;;;;;14.17;9.87;;;;;;;-0.14;83.48;100871.41;4934073;29;20051;-85
2022/02/26 02:57:59;;;;;;;11.33;8.17;;;;;;;-0.32;84.94;100916.38;4934184;29;20062;-92
2022/02/26 03:00:26;;;;;;;13.90;8.57;;;;;;;-0.48;86.97;100904.00;4933924;29;20050;-84
2022/02/26 03:02:52;;;;;;;16.40;9.57;;;;;;;-0.46;88.09;100897.44;4949711;29;20046;-84
2022/02/26 03:05:21;;;;;;;15.23;8.37;;;;;;;-0.24;88.24;100919.59;4933872;29;20043;-85
2022/02/26 03:07:48;;;;;;;15.40;8.07;;;;;;;-0.10;87.62;100918.25;4934066;29;20078;-83
2022/02/26 03:10:14;;;;;;;12.43;8.13;;;;;;;-0.01;87.16;100914.84;4933913;29;20130;-79
2022/02/26 03:12:39;;;;;;;13.30;9.33;;;;;;;0.09;86.84;100911.47;4949575;28;20121;-82
2022/02/26 03:15:05;;;;;;;14.87;9.10;;;;;;;0.19;86.66;100913.16;4949789;29;20062;-81
2022/02/26 03:17:31;;;;;;;15.57;7.53;;;;;;;0.10;86.63;100918.34;4966538;28;20049;-79
2022/02/26 03:19:56;;;;;;;14.20;8.07;;;;;;;0.02;86.88;100926.03;4971671;28;20043;-78
2022/02/26 03:22:23;;;;;;;14.13;8.60;;;;;;;-0.07;88.28;100923.59;4971737;28;20031;-82
2022/02/26 03:24:49;;;;;;;12.73;7.47;;;;;;;-0.20;88.81;100917.47;4970004;28;20030;-80
2022/02/26 03:27:15;;;;;;;14.07;8.23;;;;;;;-0.28;89.53;100932.78;4965378;28;20042;-79
2022/02/26 03:29:41;;;;;;;13.63;8.87;;;;;;;-0.28;90.45;100933.66;4953127;28;20111;-80
2022/02/26 03:32:08;;;;;;;11.80;7.57;;;;;;;-0.36;90.31;100930.44;4953641;28;20383;-79
2022/02/26 03:34:35;;;;;;;16.63;8.70;;;;;;;-1.07;93.11;100946.97;4969691;28;20026;-78
2022/02/26 03:37:01;;;;;;;16.30;9.00;;;;;;;-1.48;95.56;100916.22;4970677;28;20097;-78
2022/02/26 03:39:35;;;;;;;14.97;9.07;;;;;;;-1.40;96.53;100932.97;4953337;28;20031;-77
2022/02/26 03:42:06;;;;;;;19.90;11.90;;;;;;;-1.51;97.79;100934.53;4971228;28;20579;-77
2022/02/26 03:44:33;;;;;;;16.87;10.03;;;;;;;-1.74;99.05;100924.81;4974494;28;20047;-74
2022/02/26 03:47:00;;;;;;;20.97;14.90;;;;;;;-1.45;98.60;100951.94;4957097;28;20089;-77
2022/02/26 03:49:26;;;;;;;21.90;15.67;;;;;;;-1.42;98.54;100954.75;4974322;28;20030;-77
2022/02/26 03:51:51;;;;;;;13.53;8.67;;;;;;;-1.39;98.37;100957.56;4974477;28;20034;-77
2022/02/26 03:54:17;;;;;;;18.07;9.87;;;;;;;-1.39;98.35;100957.56;4957140;28;20027;-76
2022/02/26 03:56:43;;;;;;;16.13;9.30;;;;;;;-1.30;97.63;100952.44;4974242;28;20042;-78
2022/02/26 03:59:09;;;;;;;28.17;14.77;;;;;;;-1.19;96.33;100945.84;4974216;28;20721;-76
2022/02/26 04:01:35;;;;;;;21.63;11.77;;;;;;;-0.94;95.52;100956.56;4974124;28;20022;-76
2022/02/26 04:04:00;;;;;;;17.47;10.27;;;;;;;-0.78;94.60;100960.50;4974654;28;20027;-76
2022/02/26 04:06:26;;;;;;;21.33;9.50;;;;;;;-0.77;93.28;100950.50;4973316;28;20035;-76
2022/02/26 04:08:51;;;;;;;17.97;10.23;;;;;;;-0.83;92.75;100947.41;4974466;28;20118;-79
2022/02/26 04:11:17;;;;;;;14.37;8.83;;;;;;;-0.83;92.98;100953.34;4974711;28;20030;-77
2022/02/26 04:13:42;;;;;;;15.17;9.70;;;;;;;-0.87;92.63;100943.69;4974115;28;20031;-79
2022/02/26 04:16:08;;;;;;;16.37;10.27;;;;;;;-1.06;92.03;100925.94;4972648;28;20118;-78
2022/02/26 04:18:33;;;;;;;13.50;8.87;;;;;;;-0.94;92.93;100948.09;4973853;28;20046;-78
2022/02/26 04:20:59;;;;;;;17.30;9.37;;;;;;;-0.93;93.41;100965.94;4973071;28;20485;-79
2022/02/26 04:23:24;;;;;;;18.67;10.13;;;;;;;-0.85;93.36;100974.25;4974101;28;20440;-78
2022/02/26 04:25:50;;;;;;;18.20;10.03;;;;;;;-0.86;93.70;100964.84;4957902;28;20027;-78
2022/02/26 04:28:16;;;;;;;15.97;9.23;;;;;;;-0.86;93.49;100958.16;4956214;28;20038;-78
2022/02/26 04:30:41;;;;;;;16.60;10.00;;;;;;;-0.68;92.87;100965.63;4972107;28;20113;-78
2022/02/26 04:33:08;;;;;;;16.53;10.60;;;;;;;-0.55;92.17;100957.47;4973530;28;20034;-77
2022/02/26 04:35:34;;;;;;;18.80;10.23;;;;;;;-0.55;90.83;100937.19;4972282;28;20027;-78
2022/02/26 04:37:59;;;;;;;18.17;10.13;;;;;;;-0.34;89.39;100967.00;4973465;28;20038;-77
2022/02/26 04:40:25;;;;;;;17.60;9.63;;;;;;;-0.29;88.51;100980.06;4956115;28;20035;-79
2022/02/26 04:42:51;;;;;;;30.27;14.60;;;;;;;-0.66;89.28;100974.28;4973265;28;20489;-79
2022/02/26 04:45:16;;;;;;;33.50;18.13;;;;;;;-1.17;92.09;100995.91;4972616;28;20125;-75
2022/02/26 04:47:44;;;;;;;35.00;19.57;;;;;;;-1.26;94.32;100989.97;4974175;28;20030;-78
2022/02/26 04:50:12;;;;;;;24.83;15.43;;;;;;;-1.25;94.68;100996.81;4974280;28;20035;-76
2022/02/26 04:52:37;;;;;;;24.83;13.67;;;;;;;-1.12;94.70;100995.41;4974004;28;20117;-80
2022/02/26 04:55:05;;;;;;;32.77;13.43;;;;;;;-1.44;95.19;100985.75;4951872;28;20505;-79
2022/02/26 04:57:30;;;;;;;24.70;12.03;;;;;;;-1.73;97.83;100994.03;4951914;29;20445;-79
2022/02/26 04:59:56;;;;;;;22.10;10.70;;;;;;;-1.90;99.15;100979.78;4935837;29;20051;-78
2022/02/26 05:02:22;;;;;;;19.67;10.37;;;;;;;-1.79;99.34;101000.28;4951779;29;20046;-76
2022/02/26 05:04:48;;;;;;;20.43;10.90;;;;;;;-1.81;98.68;100999.28;4951761;29;20567;-79
2022/02/26 05:07:15;;;;;;;16.90;10.37;;;;;;;-1.82;98.60;101005.09;4951928;29;20035;-78
2022/02/26 05:09:42;;;;;;;20.37;10.93;;;;;;;-1.86;98.08;100997.91;4951601;29;20138;-77
2022/02/26 05:12:08;;;;;;;18.40;10.00;;;;;;;-1.84;98.67;101021.75;4951707;29;20502;-77
2022/02/26 05:14:33;;;;;;;16.70;10.60;;;;;;;-1.94;99.05;101031.75;4935580;29;20090;-77
2022/02/26 05:16:59;;;;;;;22.87;15.23;;;;;;;-2.08;100.00;101021.94;4951579;29;20031;-83
2022/02/26 05:19:24;;;;;;;18.47;11.60;;;;;;;-1.85;100.00;101041.84;4935893;29;20034;-92
2022/02/26 05:21:50;;;;;;;18.87;10.83;;;;;;;-2.01;100.00;101019.25;4937028;29;20050;-90
2022/02/26 05:24:16;;;;;;;19.97;11.23;;;;;;;-1.74;99.73;101053.00;4937548;29;20497;-87
2022/02/26 05:26:41;;;;;;;18.40;11.30;;;;;;;-1.87;99.37;101031.59;4967210;28;20409;-80
2022/02/26 05:29:07;;;;;;;19.93;11.20;;;;;;;-1.80;99.24;101051.66;4973049;28;20102;-80
2022/02/26 05:31:33;;;;;;;20.80;12.43;;;;;;;-1.81;99.73;101051.50;4973267;28;20044;-79
2022/02/26 05:33:58;;;;;;;26.40;13.23;;;;;;;-1.95;99.54;101025.78;4971679;28;20019;-80
2022/02/26 05:36:24;;;;;;;22.90;13.13;;;;;;;-1.78;99.49;101054.34;4971599;28;20518;-78
2022/02/26 05:38:50;;;;;;;22.97;14.20;;;;;;;-1.79;99.65;101055.97;4975517;28;20026;-78
2022/02/26 05:41:16;;;;;;;32.47;16.83;;;;;;;-1.93;99.35;101025.94;4992481;28;20056;-79
2022/02/26 05:43:42;;;;;;;32.40;16.20;;;;;;;-1.68;99.27;101066.25;4992261;28;20082;-74
2022/02/26 05:46:07;;;;;;;23.10;14.83;;;;;;;-1.66;99.15;101049.56;4973841;28;20030;-81
2022/02/26 05:48:32;;;;;;;23.67;15.10;;;;;;;-1.56;98.53;101071.56;4973889;28;20030;-77
2022/02/26 05:50:58;;;;;;;27.77;15.83;;;;;;;-1.60;98.29;101059.38;4973869;28;20042;-76
2022/02/26 05:53:23;;;;;;;43.13;24.13;;;;;;;-1.65;98.46;101061.47;4990632;28;20087;-77
2022/02/26 05:55:49;;;;;;;31.20;20.10;;;;;;;-1.58;99.09;101058.78;5002664;28;20458;-75
2022/02/26 05:58:14;;;;;;;21.83;14.90;;;;;;;-1.47;98.82;101068.28;4998381;28;20038;-77
2022/02/26 06:00:40;;;;;;;20.70;14.20;;;;;;;-1.44;98.51;101056.66;4982989;28;20052;-77
2022/02/26 06:03:05;;;;;;;23.33;13.50;;;;;;;-1.22;98.76;101074.75;5001595;28;20027;-76
2022/02/26 06:05:31;;;;;;;21.63;12.57;;;;;;;-1.17;97.87;101066.84;4981660;28;20018;-77
2022/02/26 06:07:56;;;;;;;19.07;11.80;;;;;;;-1.06;98.36;101077.06;4999915;28;20026;-75
2022/02/26 06:10:22;;;;;;;17.23;11.80;;;;;;;-1.19;98.85;101087.72;4983118;28;20050;-77
2022/02/26 06:12:47;;;;;;;19.70;12.43;;;;;;;-1.24;99.67;101081.34;4999631;28;20029;-76
2022/02/26 06:15:13;;;;;;;26.73;16.73;;;;;;;-1.14;100.00;101079.78;5001509;28;20018;-77
2022/02/26 06:17:39;;;;;;;26.13;16.60;;;;;;;-0.86;100.00;101092.50;4982519;28;20069;-76
2022/02/26 06:20:07;;;;;;;28.03;16.67;;;;;;;-0.76;100.00;101095.88;4998540;28;20520;-77
2022/02/26 06:22:32;;;;;;;24.60;14.93;;;;;;;-0.73;100.00;101079.31;5001433;28;20018;-77
2022/02/26 06:24:58;;;;;;;19.97;12.63;;;;;;;-0.37;100.00;101098.63;4999948;28;20551;-77
2022/02/26 06:27:23;;;;;;;23.90;13.13;;;;;;;-0.22;100.00;101101.66;5000211;28;20022;-78
2022/02/26 06:29:48;;;;;;;17.70;11.73;;;;;;;-0.08;100.00;101102.03;5001252;28;20030;-76
2022/02/26 06:32:14;;;;;;;23.37;13.37;;;;;;;0.02;99.70;101098.66;4999553;28;20026;-77
2022/02/26 06:34:40;;;;;;;19.70;13.13;;;;;;;-0.14;99.40;101097.28;5000768;28;20396;-77
2022/02/26 06:37:05;;;;;;;19.57;13.17;;;;;;;0.00;98.28;101116.31;5001131;28;20084;-76
2022/02/26 06:39:31;;;;;;;18.40;12.33;;;;;;;-0.14;98.81;101125.19;4998871;28;20088;-76
2022/02/26 06:41:56;;;;;;;18.67;11.87;;;;;;;-0.28;99.31;101115.47;4978600;28;20551;-78
2022/02/26 06:44:22;;;;;;;18.10;12.23;;;;;;;-0.19;100.00;101121.34;4938723;28;1156612;-76
2022/02/26 06:46:48;;;;;;;20.57;12.67;;;;;;;-0.14;100.00;101129.38;4978033;28;20602;-77
2022/02/26 06:49:15;;;;;;;21.60;13.40;;;;;;;0.12;99.23;101117.38;4975492;28;20058;-78
2022/02/26 06:51:41;;;;;;;21.73;14.37;;;;;;;-0.05;98.55;101087.06;4971826;28;20049;-78
2022/02/26 06:54:07;;;;;;;22.93;13.73;;;;;;;0.04;98.55;101112.38;4977119;28;20039;-77
2022/02/26 06:56:34;;;;;;;22.13;13.57;;;;;;;0.38;98.99;101115.38;4977610;28;20448;-78
2022/02/26 06:59:00;;;;;;;21.00;13.80;;;;;;;0.56;96.90;101113.53;4950085;28;20543;-79
2022/02/26 07:01:25;;;;;;;27.53;14.40;;;;;;;0.57;95.86;101118.75;4977781;28;20042;-78
2022/02/26 07:03:51;;;;;;;19.97;12.00;;;;;;;1.02;97.57;101116.63;4963559;28;20037;-77
2022/02/26 07:06:17;;;;;;;17.80;11.67;;;;;;;1.45;96.54;101130.44;4978423;28;20046;-76
2022/02/26 07:08:43;;;;;;;20.50;14.80;;;;;;;1.74;93.10;101121.81;4962483;28;20105;-79
2022/02/26 07:11:08;;;;;;;16.43;11.87;;;;;;;1.97;91.61;101115.16;4979475;28;20500;-76
2022/02/26 07:13:34;;;;;;;21.63;13.50;;;;;;;2.19;88.84;101125.44;4994420;28;20070;-78
2022/02/26 07:15:59;;;;;;;20.23;10.57;;;;;;;2.28;86.48;101099.81;5000945;28;20033;-83
2022/02/26 07:18:26;;;;;;;23.13;12.37;;;;;;;2.58;86.84;101119.25;4986572;28;20116;-77
2022/02/26 07:20:53;;;;;;;20.93;11.73;;;;;;;2.66;84.49;101110.53;5003029;28;20034;-77
2022/02/26 07:23:19;;;;;;;17.53;13.03;;;;;;;2.87;84.47;101126.63;5004615;28;20095;-77
2022/02/26 07:25:45;;;;;;;20.57;14.10;;;;;;;3.03;84.29;101130.38;4987672;28;20536;-78
2022/02/26 07:28:15;;;;;;;21.85;13.15;;;;;;;3.08;83.00;101117.19;4998761;28;20069;-77
2022/02/26 07:30:43;;;;;;;21.73;13.52;;;;;;;3.34;82.47;101132.72;5004007;28;20172;-81
2022/02/26 07:33:09;;;;;;;18.13;12.97;;;;;;;3.41;81.51;101132.44;5005020;28;20044;-80
2022/02/26 07:35:36;;;;;;;17.67;12.85;;;;;;;3.42;82.38;101126.56;5001489;28;20038;-80
2022/02/26 07:38:04;;;;;;;19.13;12.85;;;;;;;3.64;82.39;101123.97;4990179;28;20030;-80
2022/02/26 07:40:29;;;;;;;17.80;12.77;;;;;;;3.49;81.63;101120.25;4994501;28;20053;-79
2022/02/26 07:42:56;;;;;;;20.40;11.98;;;;;;;3.47;81.98;101124.38;4986572;28;20066;-76
2022/02/26 07:45:21;;;;;;;17.05;11.95;;;;;;;3.60;82.42;101121.97;4956677;28;20516;-79
2022/02/26 07:47:48;;;;;;;16.23;9.73;;;;;;;3.52;82.35;101097.50;4932991;29;20043;-82
2022/02/26 07:50:13;;;;;;;18.63;11.68;;;;;;;3.53;83.20;101118.03;4949076;29;20046;-76
2022/02/26 07:52:39;;;;;;;18.13;12.43;;;;;;;3.64;83.15;101115.41;4934905;29;20123;-79
2022/02/26 07:55:06;;;;;;;17.77;12.95;;;;;;;3.69;83.24;101112.44;4934913;29;20039;-80
2022/02/26 07:57:31;;;;;;;16.58;11.00;;;;;;;3.73;82.90;101106.78;4918705;29;20594;-82
2022/02/26 07:59:57;;;;;;;16.30;11.15;;;;;;;3.80;82.65;101104.69;4935921;29;20106;-78
2022/02/26 08:02:23;;;;;;;16.55;11.43;;;;;;;3.96;81.66;101102.50;4936010;29;20041;-80
2022/02/26 08:04:49;;;;;;;14.77;10.18;;;;;;;4.04;80.27;101103.94;4935573;29;20031;-78
2022/02/26 08:07:17;;;;;;;12.40;8.52;;;;;;;4.05;78.95;101089.53;4898956;29;20036;-81
2022/02/26 08:09:46;;;;;;;14.15;9.07;;;;;;;4.06;79.61;101081.03;4895599;29;20051;-79
2022/02/26 08:12:13;;;;;;;13.70;9.20;;;;;;;4.11;79.23;101104.38;4895080;29;20050;-77
2022/02/26 08:14:39;;;;;;;14.30;9.38;;;;;;;4.24;76.94;101111.28;4894956;29;20515;-79
2022/02/26 08:17:05;;;;;;;14.23;9.35;;;;;;;4.15;76.50;101103.81;4892860;29;20040;-81
2022/02/26 08:19:31;;;;;;;14.98;9.90;;;;;;;4.22;77.21;101088.16;4893576;29;20044;-79
2022/02/26 08:21:56;;;;;;;13.77;9.45;;;;;;;4.27;77.26;101108.94;4913609;29;20059;-81
2022/02/26 08:24:22;;;;;;;14.50;9.82;;;;;;;4.30;76.50;101101.50;4913672;29;20040;-79
2022/02/26 08:26:48;;;;;;;14.10;10.55;;;;;;;4.66;76.73;101121.16;4913606;29;20131;-83
2022/02/26 08:29:15;;;;;;;14.77;10.93;;;;;;;4.93;75.14;101123.88;4912735;29;20145;-85
2022/02/26 08:31:42;;;;;;;15.98;9.65;;;;;;;5.06;75.75;101127.28;4912917;29;20055;-84
2022/02/26 08:34:07;;;;;;;11.40;8.23;;;;;;;5.00;74.65;101117.53;4913143;29;20046;-83
2022/02/26 08:36:33;;;;;;;13.18;9.77;;;;;;;5.18;75.60;101115.34;4914926;29;20126;-82
2022/02/26 08:38:58;;;;;;;13.88;9.20;;;;;;;5.30;74.31;101087.16;4929462;29;20430;-84
2022/02/26 08:41:24;;;;;;;18.70;12.20;;;;;;;5.46;77.52;101119.81;4935150;29;20043;-80
2022/02/26 08:43:49;;;;;;;16.23;11.02;;;;;;;5.36;74.06;101085.00;4935060;29;20062;-83
2022/02/26 08:46:15;;;;;;;11.05;7.95;;;;;;;5.58;73.11;101094.13;4951715;29;20606;-83
2022/02/26 08:48:40;;;;;;;11.20;7.85;;;;;;;5.32;71.62;101078.78;4950823;29;20090;-79
2022/02/26 08:51:06;;;;;;;10.73;8.15;;;;;;;5.27;71.18;101074.13;4951393;29;20035;-81
2022/02/26 08:53:33;;;;;;;10.23;7.32;;;;;;;5.35;70.43;101098.59;4955735;28;20110;-83
2022/02/26 08:55:58;;;;;;;11.73;7.25;;;;;;;5.56;69.57;101106.84;5012970;28;20026;-86
2022/02/26 08:58:24;;;;;;;10.90;7.10;;;;;;;5.48;70.44;101078.16;4972617;28;20133;-86
2022/02/26 09:04:12;;;;;;;11.82;7.85;;;;;;;6.01;71.07;101079.06;5079203;23;20060;-80
2022/02/26 09:06:37;;;;;;;10.82;7.95;;;;;;;5.87;69.49;101039.72;5014975;28;20034;-81
2022/02/26 09:09:05;;;;;;;13.50;8.35;;;;;;;6.47;68.52;101096.53;5017530;28;20056;-81
2022/02/26 09:11:31;;;;;;;10.18;7.10;;;;;;;6.51;69.21;101077.09;4996718;28;20034;-82
2022/02/26 09:13:56;;;;;;;10.55;6.97;;;;;;;6.01;68.74;100991.03;5031720;28;20022;-78
2022/02/26 09:16:22;;;;;;;11.18;8.18;;;;;;;6.64;70.87;101102.72;5031811;28;20030;-81
2022/02/26 09:18:48;;;;;;;12.15;7.95;;;;;;;6.49;70.02;101079.53;5013658;28;20399;-80
2022/02/26 09:21:14;;;;;;;15.10;7.38;;;;;;;6.72;66.90;101100.66;5060496;23;20048;-81
2022/02/26 09:23:39;;;;;;;10.13;6.68;;;;;;;6.95;65.51;101086.66;5010661;28;20041;-81
2022/02/26 09:26:06;;;;;;;11.55;7.43;;;;;;;6.95;67.29;101056.75;4984047;28;20153;-81
2022/02/26 09:28:39;;;;;;;10.85;8.38;;;;;;;7.23;65.29;101084.09;4969316;28;20128;-82
2022/02/26 09:31:06;;;;;;;11.10;7.90;;;;;;;7.37;66.15;101078.91;4953293;28;20055;-79
2022/02/26 09:33:31;;;;;;;11.43;8.38;;;;;;;7.51;64.66;101065.19;4951657;29;20039;-79
2022/02/26 09:35:59;;;;;;;12.25;8.48;;;;;;;7.81;65.58;101080.63;4951868;29;20039;-82
2022/02/26 09:38:26;;;;;;;14.68;9.77;;;;;;;7.98;66.69;101080.72;4935253;29;20043;-79
2022/02/26 09:40:56;;;;;;;11.57;8.48;;;;;;;7.97;64.44;101068.66;4950412;28;20466;-78
2022/02/26 09:43:22;;;;;;;11.68;9.30;;;;;;;8.08;67.18;101049.59;4951420;29;20051;-79
2022/02/26 09:45:49;;;;;;;13.90;10.02;;;;;;;8.18;65.92;101048.41;4951374;29;20039;-79
2022/02/26 09:48:15;;;;;;;15.23;9.60;;;;;;;8.35;64.22;101064.78;4951171;29;20031;-78
2022/02/26 09:50:40;;;;;;;14.15;10.32;;;;;;;8.48;66.79;101056.97;4957791;28;20445;-80
2022/02/26 09:53:06;;;;;;;15.10;10.88;;;;;;;8.65;63.97;101063.03;4969896;28;20078;-78
2022/02/26 09:55:32;;;;;;;13.57;9.90;;;;;;;8.49;64.77;101019.28;4970131;28;20049;-80
2022/02/26 09:57:59;;;;;;;16.85;9.55;;;;;;;8.61;65.28;101011.31;4970538;28;20039;-81
2022/02/26 10:00:25;;;;;;;11.73;7.88;;;;;;;8.94;62.05;101056.00;4970352;28;20039;-76
2022/02/26 10:02:51;;;;;;;12.40;7.88;;;;;;;9.01;60.86;101042.63;4958419;28;20038;-78
2022/02/26 10:05:20;;;;;;;12.18;7.82;;;;;;;9.09;61.16;101039.59;4989678;28;20131;-78
2022/02/26 10:07:49;;;;;;;13.00;8.40;;;;;;;9.12;59.82;101038.06;4989365;28;20097;-78
2022/02/26 10:10:16;;;;;;;;;;;;;;;9.38;61.07;101051.38;4970521;28;20691;-79
2022/02/26 10:12:43;;;;;;;11.68;7.85;;;;;;;9.31;59.29;101029.56;4970096;28;20408;-78
2022/02/26 10:15:27;;;;;;;11.63;6.90;;;;;;;9.47;58.57;101036.41;4970228;28;20150;-82
2022/02/26 10:18:15;;;;;;;10.68;7.50;;;;;;;9.42;57.14;101030.13;4953846;28;20081;-79
2022/02/26 10:20:46;;;;;;;13.48;7.60;;;;;;;9.58;56.12;101033.47;4953680;28;20129;-79
2022/02/26 10:23:15;;;;;;;15.75;6.70;;;;;;;9.54;52.63;101023.03;4968727;28;20062;-81
2022/02/26 10:25:41;;;;;;;18.05;8.93;;;;;;;9.78;52.50;101037.94;4954367;28;20047;-83
2022/02/26 10:28:11;;;;;;;17.38;8.13;;;;;;;9.84;55.00;101015.03;4962369;28;20035;-83
2022/02/26 10:30:40;;;;;;;16.25;9.50;;;;;;;9.75;55.57;101024.88;4977038;28;20428;-83
2022/02/26 10:33:13;;;;;;;18.13;9.53;;;;;;;10.02;54.43;101025.31;4984685;28;20398;-83
2022/02/26 10:35:45;;;;;;;21.27;9.90;;;;;;;10.26;55.00;101026.44;4991961;28;20343;-85
2022/02/26 10:38:12;;;;;;;23.23;10.75;;;;;;;10.29;54.27;101021.41;4973537;28;20054;-89
2022/02/26 10:41:03;;;;;;;19.67;10.00;;;;;;;10.08;54.22;100990.31;4962047;28;20030;-90
2022/02/26 10:43:44;;;;;;;36.50;11.88;;;;;;;10.43;52.52;101025.56;4973388;28;20512;-86
2022/02/26 10:46:29;;;;;;;23.55;9.95;;;;;;;10.58;51.18;101021.91;4979857;28;20101;-82
2022/02/26 10:49:03;;;;;;;29.60;11.43;;;;;;;10.74;51.79;101010.56;4988538;28;20030;-78
2022/02/26 10:51:34;;;;;;;33.63;12.27;;;;;;;10.88;50.86;101008.59;4986492;28;20026;-81
2022/02/26 10:54:03;;;;;;;38.58;13.35;;;;;;;11.03;49.54;101003.22;4990756;28;20031;-83
2022/02/26 10:56:44;;;;;;;37.08;13.95;;;;;;;11.04;47.79;100992.06;4990284;28;20507;-81
2022/02/26 10:59:12;;;;;;;25.80;9.13;;;;;;;11.27;47.89;101000.81;4990902;28;20045;-86
2022/02/26 11:01:38;;;;;;;16.02;7.80;;;;;;;11.19;47.12;100989.28;4972937;28;20125;-89
2022/02/26 11:04:04;;;;;;;14.60;8.38;;;;;;;11.20;47.17;100973.81;4972723;28;20453;-87
2022/02/26 11:06:32;;;;;;;11.98;6.30;;;;;;;11.41;45.81;100996.25;4973067;28;20088;-85
2022/02/26 11:08:59;;;;;;;16.48;6.95;;;;;;;11.59;49.90;100993.50;4988990;28;20034;-86
2022/02/26 11:11:25;;;;;;;15.05;6.72;;;;;;;11.65;46.39;100970.50;4991201;28;20034;-87
2022/02/26 11:13:54;;;;;;;23.45;9.30;;;;;;;11.94;46.99;100988.91;4990010;28;20429;-87
2022/02/26 11:16:22;;;;;;;14.35;6.93;;;;;;;12.10;46.12;100980.97;4988726;28;20018;-83
2022/02/26 11:18:51;;;;;;;13.82;6.20;;;;;;;12.21;44.76;100968.44;4990038;28;20477;-83
2022/02/26 11:21:19;;;;;;;22.83;7.80;;;;;;;12.47;44.84;100978.88;4989656;28;20030;-83
2022/02/26 11:23:48;;;;;;;22.35;8.70;;;;;;;12.49;44.13;100974.66;4989249;28;20126;-84